createdAt,value
2022-12-05T00:00:49.037Z,6.40
2022-12-05T00:02:22.141Z,6.40
2022-12-05T00:03:56.919Z,6.30
2022-12-05T00:05:31.204Z,6.30
2022-12-05T00:07:04.261Z,6.30
2022-12-05T00:08:37.318Z,6.30
2022-12-05T00:10:11.176Z,6.30
2022-12-05T00:11:44.888Z,6.30
2022-12-05T00:13:17.819Z,6.20
2022-12-05T00:14:51.039Z,6.20
2022-12-05T00:16:26.747Z,6.20
2022-12-05T00:17:58.688Z,6.20
2022-12-05T00:19:31.533Z,6.30
2022-12-05T00:21:05.194Z,6.20
2022-12-05T00:22:38.936Z,6.20
2022-12-05T00:24:14.644Z,6.20
2022-12-05T00:25:47.494Z,6.20
2022-12-05T00:27:20.383Z,6.20
2022-12-05T00:28:52.936Z,6.20
2022-12-05T00:30:25.779Z,6.20
2022-12-05T00:31:58.834Z,6.20
2022-12-05T00:33:31.833Z,6.10
2022-12-05T00:35:05.093Z,6.10
2022-12-05T00:36:38.891Z,6.20
2022-12-05T00:38:11.844Z,6.20
2022-12-05T00:39:44.853Z,6.20
2022-12-05T00:41:19.267Z,6.20
2022-12-05T00:42:52.581Z,6.20
2022-12-05T00:44:25.354Z,6.20
2022-12-05T00:46:01.505Z,6.20
2022-12-05T00:47:36.661Z,6.20
2022-12-05T00:49:08.673Z,6.20
2022-12-05T00:50:41.525Z,6.20
2022-12-05T00:52:15.781Z,6.20
2022-12-05T00:53:48.285Z,6.20
2022-12-05T00:55:21.413Z,6.20
2022-12-05T00:56:56.342Z,6.20
2022-12-05T00:58:28.271Z,6.20
2022-12-05T01:00:01.107Z,6.20
2022-12-05T01:01:35.546Z,6.20
2022-12-05T01:03:08.504Z,6.20
2022-12-05T01:04:41.452Z,6.20
2022-12-05T01:06:14.854Z,6.20
2022-12-05T01:07:49.015Z,6.20
2022-12-05T01:09:22.583Z,6.20
2022-12-05T01:10:55.834Z,6.20
2022-12-05T01:12:29.886Z,6.20
2022-12-05T01:14:02.831Z,6.20
2022-12-05T01:15:38.001Z,6.20
2022-12-05T01:17:11.419Z,6.20
2022-12-05T01:18:43.656Z,6.20
2022-12-05T01:20:16.682Z,6.20
2022-12-05T01:21:49.918Z,6.20
2022-12-05T01:23:23.760Z,6.20
2022-12-05T01:24:58.160Z,6.20
2022-12-05T01:26:31.123Z,6.30
2022-12-05T01:28:03.098Z,6.30
2022-12-05T01:29:36.094Z,6.30
2022-12-05T01:31:10.158Z,6.20
2022-12-05T01:32:43.074Z,6.30
2022-12-05T01:34:17.784Z,6.20
2022-12-05T01:35:49.809Z,6.20
2022-12-05T01:37:23.028Z,6.20
2022-12-05T01:38:58.064Z,6.20
2022-12-05T01:40:31.436Z,6.20
2022-12-05T01:42:05.687Z,6.20
2022-12-05T01:43:56.780Z,6.20
2022-12-05T01:45:35.300Z,6.20
2022-12-05T01:47:08.605Z,6.20
2022-12-05T01:48:42.492Z,6.20
2022-12-05T01:50:15.503Z,6.20
2022-12-05T01:51:51.172Z,6.20
2022-12-05T01:53:24.330Z,6.20
2022-12-05T01:55:02.883Z,6.20
2022-12-05T01:56:37.307Z,6.20
2022-12-05T01:58:10.746Z,6.20
2022-12-05T01:59:51.484Z,6.20
2022-12-05T02:01:24.384Z,6.20
2022-12-05T02:03:00.227Z,6.20
2022-12-05T02:04:39.595Z,6.20
2022-12-05T02:06:14.178Z,6.20
2022-12-05T02:07:48.804Z,6.20
2022-12-05T02:09:22.084Z,6.20
2022-12-05T02:10:58.597Z,6.20
2022-12-05T02:12:30.556Z,6.10
2022-12-05T02:14:17.073Z,6.10
2022-12-05T02:15:57.085Z,6.10
2022-12-05T02:17:40.031Z,6.10
2022-12-05T02:19:45.376Z,6.10
2022-12-05T02:21:44.896Z,6.10
2022-12-05T02:23:32.225Z,6.20
2022-12-05T02:25:34.111Z,6.10
2022-12-05T02:27:27.639Z,6.10
2022-12-05T02:29:34.019Z,6.10
2022-12-05T02:31:16.257Z,6.10
2022-12-05T02:32:57.088Z,6.10
2022-12-05T02:34:36.374Z,6.10
2022-12-05T02:36:16.116Z,6.10
2022-12-05T02:37:59.138Z,6.10
2022-12-05T02:39:42.422Z,6.00
2022-12-05T02:41:23.422Z,6.10
2022-12-05T02:43:01.813Z,6.10
2022-12-05T02:44:39.081Z,6.00
2022-12-05T02:46:20.186Z,6.00
2022-12-05T02:47:54.971Z,6.10
2022-12-05T02:49:32.584Z,6.10
2022-12-05T02:51:07.698Z,6.00
2022-12-05T02:52:41.934Z,6.00
2022-12-05T02:54:18.766Z,6.00
2022-12-05T02:55:52.219Z,6.00
2022-12-05T02:57:25.631Z,6.00
2022-12-05T02:58:57.397Z,5.90
2022-12-05T03:00:30.439Z,5.90
2022-12-05T03:02:04.735Z,5.90
2022-12-05T03:03:38.088Z,5.90
2022-12-05T03:05:16.396Z,5.90
2022-12-05T03:06:53.772Z,5.90
2022-12-05T03:08:30.921Z,5.90
2022-12-05T03:10:07.972Z,5.80
2022-12-05T03:11:46.582Z,5.80
2022-12-05T03:13:25.074Z,5.80
2022-12-05T03:15:04.197Z,5.80
2022-12-05T03:16:41.791Z,5.80
2022-12-05T03:18:20.606Z,5.80
2022-12-05T03:19:59.234Z,5.80
2022-12-05T03:21:38.300Z,5.90
2022-12-05T03:23:15.701Z,5.80
2022-12-05T03:24:49.314Z,5.80
2022-12-05T03:26:38.351Z,5.80
2022-12-05T03:28:19.136Z,5.80
2022-12-05T03:29:57.408Z,5.80
2022-12-05T03:31:40.761Z,5.80
2022-12-05T03:33:18.558Z,5.80
2022-12-05T03:35:00.032Z,5.80
2022-12-05T03:36:38.524Z,5.80
2022-12-05T03:38:14.601Z,5.80
2022-12-05T03:39:55.585Z,5.80
2022-12-05T03:41:35.894Z,5.80
2022-12-05T03:43:14.637Z,5.80
2022-12-05T03:44:53.691Z,5.80
2022-12-05T03:46:31.129Z,5.80
2022-12-05T03:48:11.447Z,5.80
2022-12-05T03:49:49.213Z,5.80
2022-12-05T03:51:28.566Z,5.70
2022-12-05T03:53:21.401Z,5.70
2022-12-05T03:54:57.714Z,5.70
2022-12-05T03:56:36.743Z,5.70
2022-12-05T03:58:15.453Z,5.70
2022-12-05T03:59:52.605Z,5.70
2022-12-05T04:01:29.282Z,5.70
2022-12-05T04:03:05.826Z,5.70
2022-12-05T04:04:44.152Z,5.70
2022-12-05T04:06:24.080Z,5.70
2022-12-05T04:08:02.224Z,5.70
2022-12-05T04:09:40.132Z,5.70
2022-12-05T04:11:17.303Z,5.70
2022-12-05T04:12:52.873Z,5.70
2022-12-05T04:14:30.841Z,5.70
2022-12-05T04:16:25.292Z,5.60
2022-12-05T04:18:00.120Z,5.70
2022-12-05T04:19:57.116Z,5.70
2022-12-05T04:21:39.708Z,5.70
2022-12-05T04:23:12.041Z,5.60
2022-12-05T04:25:02.461Z,5.60
2022-12-05T04:26:37.526Z,5.60
2022-12-05T04:28:22.286Z,5.50
2022-12-05T04:30:02.481Z,5.50
2022-12-05T04:31:40.542Z,5.50
2022-12-05T04:33:17.184Z,5.40
2022-12-05T04:34:58.245Z,5.40
2022-12-05T04:36:35.276Z,5.40
2022-12-05T04:38:12.840Z,5.40
2022-12-05T04:39:49.839Z,5.40
2022-12-05T04:41:26.701Z,5.40
2022-12-05T04:43:02.703Z,5.40
2022-12-05T04:44:40.044Z,5.40
2022-12-05T04:46:15.716Z,5.40
2022-12-05T04:47:54.288Z,5.40
2022-12-05T04:49:30.081Z,5.40
2022-12-05T04:51:04.577Z,5.30
2022-12-05T04:52:40.393Z,5.30
2022-12-05T04:54:19.503Z,5.30
2022-12-05T04:55:56.410Z,5.30
2022-12-05T04:57:34.677Z,5.30
2022-12-05T04:59:07.686Z,5.30
2022-12-05T05:00:48.326Z,5.30
2022-12-05T05:02:24.898Z,5.20
2022-12-05T05:04:03.297Z,5.20
2022-12-05T05:05:37.626Z,5.20
2022-12-05T05:07:12.579Z,5.20
2022-12-05T05:08:51.574Z,5.20
2022-12-05T05:10:31.007Z,5.20
2022-12-05T05:12:04.648Z,5.20
2022-12-05T05:13:37.761Z,5.20
2022-12-05T05:15:11.236Z,5.20
2022-12-05T05:16:44.800Z,5.20
2022-12-05T05:18:17.731Z,5.20
2022-12-05T05:19:50.629Z,5.20
2022-12-05T05:21:27.763Z,5.20
2022-12-05T05:23:00.602Z,5.20
2022-12-05T05:24:34.849Z,5.20
2022-12-05T05:26:07.835Z,5.20
2022-12-05T05:27:40.790Z,5.10
2022-12-05T05:29:15.321Z,5.10
2022-12-05T05:30:48.293Z,5.20
2022-12-05T05:32:21.331Z,5.20
2022-12-05T05:33:55.933Z,5.20
2022-12-05T05:35:28.810Z,5.20
2022-12-05T05:37:01.728Z,5.10
2022-12-05T05:38:37.959Z,5.20
2022-12-05T05:40:14.790Z,5.20
2022-12-05T05:41:47.749Z,5.20
2022-12-05T05:43:20.602Z,5.10
2022-12-05T05:44:52.489Z,5.20
2022-12-05T05:46:27.586Z,5.10
2022-12-05T05:48:00.557Z,5.10
2022-12-05T05:49:33.532Z,5.10
2022-12-05T05:51:07.844Z,5.10
2022-12-05T05:52:40.723Z,5.10
2022-12-05T05:54:13.639Z,5.10
2022-12-05T05:55:47.845Z,5.00
2022-12-05T05:57:20.886Z,5.00
2022-12-05T05:58:57.973Z,4.90
2022-12-05T06:00:30.993Z,4.90
2022-12-05T06:02:03.850Z,4.90
2022-12-05T06:03:37.656Z,4.90
2022-12-05T06:05:10.838Z,4.90
2022-12-05T06:06:43.861Z,4.90
2022-12-05T06:08:16.799Z,4.90
2022-12-05T06:09:49.749Z,4.90
2022-12-05T06:11:26.708Z,4.80
2022-12-05T06:13:01.415Z,4.80
2022-12-05T06:14:33.480Z,4.90
2022-12-05T06:16:07.569Z,4.80
2022-12-05T06:17:40.649Z,4.80
2022-12-05T06:19:13.580Z,4.80
2022-12-05T06:20:54.078Z,4.70
2022-12-05T06:22:26.991Z,4.80
2022-12-05T06:23:59.995Z,4.80
2022-12-05T06:25:32.848Z,4.70
2022-12-05T06:27:07.234Z,4.80
2022-12-05T06:28:40.406Z,4.80
2022-12-05T06:30:13.989Z,4.70
2022-12-05T06:31:46.978Z,4.70
2022-12-05T06:33:20.390Z,4.70
2022-12-05T06:34:53.082Z,4.70
2022-12-05T06:36:26.725Z,4.60
2022-12-05T06:37:59.609Z,4.60
2022-12-05T06:39:32.561Z,4.60
2022-12-05T06:41:06.933Z,4.70
2022-12-05T06:42:41.185Z,4.70
2022-12-05T06:44:13.058Z,4.60
2022-12-05T06:45:45.950Z,4.60
2022-12-05T06:47:18.817Z,4.60
2022-12-05T06:48:53.560Z,4.60
2022-12-05T06:50:26.491Z,4.70
2022-12-05T06:52:02.915Z,4.60
2022-12-05T06:53:35.976Z,4.60
2022-12-05T06:55:17.198Z,4.60
2022-12-05T06:56:50.164Z,4.60
2022-12-05T06:58:24.554Z,4.60
2022-12-05T07:00:20.600Z,4.60
2022-12-05T07:01:53.392Z,4.60
2022-12-05T07:03:25.399Z,4.70
2022-12-05T07:04:58.245Z,4.60
2022-12-05T07:06:31.220Z,4.60
2022-12-05T07:08:04.238Z,4.50
2022-12-05T07:09:53.830Z,4.50
2022-12-05T07:11:27.056Z,4.50
2022-12-05T07:12:59.935Z,4.50
2022-12-05T07:14:50.277Z,4.50
2022-12-05T07:16:23.429Z,4.60
2022-12-05T07:17:56.355Z,4.60
2022-12-05T07:19:29.282Z,4.50
2022-12-05T07:21:13.090Z,4.50
2022-12-05T07:22:46.681Z,4.50
2022-12-05T07:24:19.637Z,4.50
2022-12-05T07:25:52.593Z,4.50
2022-12-05T07:27:28.035Z,4.50
2022-12-05T07:29:01.264Z,4.50
2022-12-05T07:30:35.710Z,4.50
2022-12-05T07:32:09.284Z,4.50
2022-12-05T07:33:42.415Z,4.50
2022-12-05T07:35:15.558Z,4.50
2022-12-05T07:36:48.571Z,4.50
2022-12-05T07:38:21.384Z,4.50
2022-12-05T07:39:54.568Z,4.50
2022-12-05T07:41:29.513Z,4.50
2022-12-05T07:43:02.391Z,4.50
2022-12-05T07:44:35.592Z,4.50
2022-12-05T07:46:12.258Z,4.60
2022-12-05T07:47:45.278Z,4.60
2022-12-05T07:49:18.217Z,4.60
2022-12-05T07:50:54.196Z,4.60
2022-12-05T07:52:28.226Z,4.60
2022-12-05T07:54:01.482Z,4.60
2022-12-05T07:55:34.353Z,4.60
2022-12-05T07:57:07.265Z,4.60
2022-12-05T07:58:40.131Z,4.60
2022-12-05T08:00:14.581Z,4.60
2022-12-05T08:01:48.903Z,4.60
2022-12-05T08:03:22.083Z,4.60
2022-12-05T08:04:55.060Z,4.50
2022-12-05T08:06:31.511Z,4.60
2022-12-05T08:08:04.594Z,4.60
2022-12-05T08:09:37.532Z,4.60
2022-12-05T08:11:12.902Z,4.60
2022-12-05T08:12:45.742Z,4.60
2022-12-05T08:14:18.635Z,4.60
2022-12-05T08:15:51.590Z,4.60
2022-12-05T08:17:26.635Z,4.70
2022-12-05T08:19:01.310Z,4.70
2022-12-05T08:20:34.234Z,4.80
2022-12-05T08:22:07.200Z,4.80
2022-12-05T08:23:40.762Z,4.80
2022-12-05T08:25:13.761Z,4.90
2022-12-05T08:26:46.687Z,4.90
2022-12-05T08:28:19.606Z,5.00
2022-12-05T08:29:52.496Z,5.00
2022-12-05T08:31:29.145Z,5.00
2022-12-05T08:33:03.575Z,5.00
2022-12-05T08:34:36.482Z,5.00
2022-12-05T08:36:12.116Z,5.10
2022-12-05T08:37:45.007Z,5.10
2022-12-05T08:39:20.521Z,5.10
2022-12-05T08:40:53.444Z,5.20
2022-12-05T08:42:26.377Z,5.30
2022-12-05T08:44:01.402Z,5.30
2022-12-05T08:45:34.296Z,5.40
2022-12-05T08:47:07.374Z,5.50
2022-12-05T08:48:41.704Z,5.50
2022-12-05T08:50:14.676Z,5.60
2022-12-05T08:51:47.848Z,5.60
2022-12-05T08:53:20.923Z,5.70
2022-12-05T08:54:53.803Z,5.80
2022-12-05T08:56:27.595Z,5.90
2022-12-05T08:58:00.621Z,5.90
2022-12-05T08:59:33.518Z,5.90
2022-12-05T09:01:08.068Z,5.90
2022-12-05T09:02:41.262Z,5.90
2022-12-05T09:04:15.538Z,5.80
2022-12-05T09:05:51.234Z,5.70
2022-12-05T09:07:26.766Z,5.60
2022-12-05T09:09:02.596Z,5.50
2022-12-05T09:10:35.499Z,5.50
2022-12-05T09:12:08.379Z,5.50
2022-12-05T09:13:41.666Z,5.40
2022-12-05T09:15:14.683Z,5.40
2022-12-05T09:16:48.770Z,5.40
2022-12-05T09:18:21.662Z,5.40
2022-12-05T09:19:55.853Z,5.40
2022-12-05T09:21:31.826Z,5.40
2022-12-05T09:23:04.783Z,5.40
2022-12-05T09:24:38.104Z,5.40
2022-12-05T09:26:14.040Z,5.40
2022-12-05T09:27:47.053Z,5.40
2022-12-05T09:29:20.068Z,5.30
2022-12-05T09:30:58.763Z,5.40
2022-12-05T09:32:31.896Z,5.40
2022-12-05T09:34:04.896Z,5.40
2022-12-05T09:35:41.885Z,5.50
2022-12-05T09:37:37.555Z,5.60
2022-12-05T09:39:08.211Z,5.60
2022-12-05T09:40:43.753Z,5.70
2022-12-05T09:42:36.755Z,5.80
2022-12-05T09:44:21.146Z,5.80
2022-12-05T09:46:00.675Z,5.80
2022-12-05T09:47:44.718Z,5.80
2022-12-05T09:49:17.715Z,5.80
2022-12-05T09:50:57.759Z,5.70
2022-12-05T09:52:35.844Z,5.70
2022-12-05T09:54:11.016Z,5.70
2022-12-05T09:55:47.456Z,5.60
2022-12-05T09:57:33.339Z,5.60
2022-12-05T09:59:06.962Z,5.60
2022-12-05T10:00:39.979Z,5.60
2022-12-05T10:02:23.154Z,5.60
2022-12-05T10:04:13.652Z,5.70
2022-12-05T10:05:55.068Z,5.70
2022-12-05T10:07:35.963Z,5.60
2022-12-05T10:09:24.985Z,5.70
2022-12-05T10:11:02.527Z,5.70
2022-12-05T10:12:48.964Z,5.70
2022-12-05T10:14:32.097Z,5.80
2022-12-05T10:16:10.578Z,5.80
2022-12-05T10:17:47.822Z,5.80
2022-12-05T10:19:26.895Z,5.80
2022-12-05T10:21:06.012Z,5.90
2022-12-05T10:22:45.735Z,5.90
2022-12-05T10:24:24.784Z,6.00
2022-12-05T10:25:59.591Z,6.00
2022-12-05T10:27:40.312Z,6.00
2022-12-05T10:29:29.114Z,6.00
2022-12-05T10:31:07.937Z,6.00
2022-12-05T10:32:50.763Z,6.10
2022-12-05T10:34:31.915Z,6.10
2022-12-05T10:36:11.136Z,6.10
2022-12-05T10:37:48.177Z,6.20
2022-12-05T10:39:21.171Z,6.20
2022-12-05T10:40:58.191Z,6.20
2022-12-05T10:42:35.758Z,6.30
2022-12-05T10:44:09.844Z,6.30
2022-12-05T10:45:45.405Z,6.30
2022-12-05T10:47:18.415Z,6.30
2022-12-05T10:48:51.411Z,6.30
2022-12-05T10:50:29.037Z,6.30
2022-12-05T10:52:04.849Z,6.30
2022-12-05T10:53:42.135Z,6.30
2022-12-05T10:55:18.931Z,6.30
2022-12-05T10:56:53.768Z,6.30
2022-12-05T10:58:29.112Z,6.40
2022-12-05T11:00:13.154Z,6.40
2022-12-05T11:01:49.914Z,6.40
2022-12-05T11:03:29.606Z,6.40
2022-12-05T11:05:03.326Z,6.30
2022-12-05T11:06:36.515Z,6.30
2022-12-05T11:08:35.619Z,6.20
2022-12-05T11:10:26.583Z,6.20
2022-12-05T11:12:17.862Z,6.20
2022-12-05T11:13:55.448Z,6.10
2022-12-05T11:15:29.933Z,6.10
2022-12-05T11:17:04.739Z,6.10
2022-12-05T11:18:37.679Z,6.10
2022-12-05T11:20:37.647Z,6.10
2022-12-05T11:22:18.504Z,6.20
2022-12-05T11:23:53.258Z,6.30
2022-12-05T11:25:32.261Z,6.30
2022-12-05T11:27:21.503Z,6.40
2022-12-05T11:28:54.444Z,6.40
2022-12-05T11:30:29.320Z,6.50
2022-12-05T11:32:03.182Z,6.50
2022-12-05T11:33:37.599Z,6.50
2022-12-05T11:35:24.240Z,6.60
2022-12-05T11:36:59.625Z,6.60
2022-12-05T11:38:34.677Z,6.60
2022-12-05T11:40:19.921Z,6.60
2022-12-05T11:42:11.450Z,6.50
2022-12-05T11:44:08.967Z,6.50
2022-12-05T11:45:54.953Z,6.50
2022-12-05T11:47:44.300Z,6.40
2022-12-05T11:49:36.904Z,6.30
2022-12-05T11:51:24.659Z,6.20
2022-12-05T11:53:10.012Z,6.20
2022-12-05T11:55:05.641Z,6.10
2022-12-05T11:56:44.443Z,6.10
2022-12-05T11:58:55.613Z,6.10
2022-12-05T12:00:36.128Z,6.10
2022-12-05T12:02:19.187Z,6.10
2022-12-05T12:04:19.050Z,6.10
2022-12-05T12:06:04.186Z,6.20
2022-12-05T12:07:50.784Z,6.20
2022-12-05T12:09:37.566Z,6.20
2022-12-05T12:11:28.356Z,6.30
2022-12-05T12:13:19.782Z,6.30
2022-12-05T12:15:03.669Z,6.30
2022-12-05T12:16:40.588Z,6.40
2022-12-05T12:18:23.979Z,6.40
2022-12-05T12:20:13.150Z,6.50
2022-12-05T12:22:07.119Z,6.50
2022-12-05T12:23:52.979Z,6.50
2022-12-05T12:25:33.091Z,6.60
2022-12-05T12:27:16.986Z,6.50
2022-12-05T12:28:56.966Z,6.60
2022-12-05T12:30:41.205Z,6.60
2022-12-05T12:32:26.777Z,6.60
2022-12-05T12:34:06.537Z,6.50
2022-12-05T12:35:49.324Z,6.50
2022-12-05T12:37:31.624Z,6.40
2022-12-05T12:39:26.833Z,6.40
2022-12-05T12:41:09.820Z,6.30
2022-12-05T12:42:57.703Z,6.20
2022-12-05T12:44:57.889Z,6.20
2022-12-05T12:46:43.758Z,6.20
2022-12-05T12:48:32.580Z,6.10
2022-12-05T12:50:14.570Z,6.10
2022-12-05T12:51:53.881Z,6.10
2022-12-05T12:53:42.818Z,6.10
2022-12-05T12:55:23.034Z,6.10
2022-12-05T12:57:12.099Z,6.10
2022-12-05T12:58:52.471Z,6.10
2022-12-05T13:00:37.379Z,6.20
2022-12-05T13:02:17.322Z,6.10
2022-12-05T13:03:53.851Z,6.20
2022-12-05T13:05:33.623Z,6.10
2022-12-05T13:07:12.269Z,6.10
2022-12-05T13:08:49.727Z,6.10
2022-12-05T13:10:27.757Z,6.10
2022-12-05T13:12:06.115Z,6.10
2022-12-05T13:13:44.293Z,6.20
2022-12-05T13:15:20.978Z,6.20
2022-12-05T13:16:56.782Z,6.10
2022-12-05T13:18:29.710Z,6.20
2022-12-05T13:20:03.018Z,6.20
2022-12-05T13:21:37.004Z,6.20
2022-12-05T13:23:15.798Z,6.20
2022-12-05T13:24:50.998Z,6.20
2022-12-05T13:26:24.611Z,6.20
2022-12-05T13:27:59.909Z,6.20
2022-12-05T13:29:35.795Z,6.20
2022-12-05T13:31:10.541Z,6.20
2022-12-05T13:32:45.436Z,6.30
2022-12-05T13:34:46.237Z,6.30
2022-12-05T13:36:38.763Z,6.30
2022-12-05T13:38:39.634Z,6.40
2022-12-05T13:40:48.287Z,6.40
2022-12-05T13:42:24.410Z,6.40
2022-12-05T13:44:06.469Z,6.20
2022-12-05T13:45:41.384Z,6.30
2022-12-05T13:47:26.621Z,6.20
2022-12-05T13:49:08.865Z,6.20
2022-12-05T13:50:52.549Z,6.20
2022-12-05T13:52:30.064Z,6.10
2022-12-05T13:54:11.209Z,6.10
2022-12-05T13:55:57.704Z,6.10
2022-12-05T13:57:49.073Z,6.00
2022-12-05T14:00:01.348Z,6.00
2022-12-05T14:01:53.714Z,6.00
2022-12-05T14:03:57.111Z,6.00
2022-12-05T14:05:49.678Z,6.00
2022-12-05T14:07:47.392Z,6.00
2022-12-05T14:09:29.960Z,5.90
2022-12-05T14:11:11.485Z,5.90
2022-12-05T14:12:53.892Z,5.90
2022-12-05T14:15:00.591Z,5.90
2022-12-05T14:16:45.367Z,5.90
2022-12-05T14:18:25.208Z,5.90
2022-12-05T14:20:10.647Z,5.90
2022-12-05T14:21:54.258Z,5.90
2022-12-05T14:23:50.113Z,5.90
2022-12-05T14:25:57.680Z,5.90
2022-12-05T14:27:49.648Z,5.90
2022-12-05T14:29:38.726Z,5.90
2022-12-05T14:31:34.237Z,5.90
2022-12-05T14:33:17.189Z,5.90
2022-12-05T14:34:56.967Z,5.80
2022-12-05T14:36:31.604Z,5.80
2022-12-05T14:38:07.479Z,5.80
2022-12-05T14:39:42.993Z,5.80
2022-12-05T14:41:23.575Z,5.80
2022-12-05T14:42:59.971Z,5.80
2022-12-05T14:44:33.313Z,5.70
2022-12-05T14:46:07.858Z,5.70
2022-12-05T14:47:40.827Z,5.70
2022-12-05T14:49:55.519Z,5.70
2022-12-05T14:51:57.477Z,5.70
2022-12-05T14:53:38.332Z,5.70
2022-12-05T14:55:22.108Z,5.70
2022-12-05T14:57:09.774Z,5.70
2022-12-05T14:58:48.264Z,5.70
2022-12-05T15:00:23.717Z,5.70
2022-12-05T15:01:59.183Z,5.70
2022-12-05T15:03:36.312Z,5.70
2022-12-05T15:05:22.982Z,5.70
2022-12-05T15:06:58.851Z,5.70
2022-12-05T15:08:40.214Z,5.70
2022-12-05T15:10:21.424Z,5.70
2022-12-05T15:11:54.980Z,5.70
2022-12-05T15:13:28.815Z,5.70
2022-12-05T15:15:07.796Z,5.70
2022-12-05T15:16:44.760Z,5.70
2022-12-05T15:18:23.424Z,5.70
2022-12-05T15:20:03.764Z,5.70
2022-12-05T15:21:43.244Z,5.70
2022-12-05T15:23:44.064Z,5.70
2022-12-05T15:25:23.951Z,5.70
2022-12-05T15:26:58.413Z,5.70
2022-12-05T15:28:31.332Z,5.70
2022-12-05T15:30:04.530Z,5.70
2022-12-05T15:31:40.130Z,5.70
2022-12-05T15:33:14.269Z,5.70
2022-12-05T15:34:52.074Z,5.60
2022-12-05T15:36:30.565Z,5.70
2022-12-05T15:38:09.364Z,5.70
2022-12-05T15:39:55.180Z,5.60
2022-12-05T15:41:28.778Z,5.70
2022-12-05T15:43:01.716Z,5.70
2022-12-05T15:44:38.193Z,5.70
2022-12-05T15:46:23.846Z,5.60
2022-12-05T15:47:58.343Z,5.60
2022-12-05T15:49:31.228Z,5.70
2022-12-05T15:51:04.408Z,5.60
2022-12-05T15:52:43.803Z,5.60
2022-12-05T15:54:23.726Z,5.40
2022-12-05T15:56:05.312Z,5.60
2022-12-05T15:57:45.448Z,5.60
2022-12-05T15:59:22.258Z,5.70
2022-12-05T16:01:08.048Z,5.70
2022-12-05T16:02:45.747Z,5.70
2022-12-05T16:04:29.426Z,5.70
2022-12-05T16:06:10.577Z,5.70
2022-12-05T16:07:43.559Z,5.70
2022-12-05T16:09:19.795Z,5.70
2022-12-05T16:10:52.959Z,5.60
2022-12-05T16:12:35.451Z,5.70
2022-12-05T16:14:09.171Z,5.60
2022-12-05T16:15:50.807Z,5.60
2022-12-05T16:17:25.435Z,5.60
2022-12-05T16:18:59.926Z,5.60
2022-12-05T16:20:34.777Z,5.60
2022-12-05T16:22:10.634Z,5.60
2022-12-05T16:23:45.108Z,5.60
2022-12-05T16:25:22.607Z,5.60
2022-12-05T16:27:02.641Z,5.60
2022-12-05T16:28:37.115Z,5.60
2022-12-05T16:30:22.188Z,5.60
2022-12-05T16:31:56.663Z,5.60
2022-12-05T16:33:31.098Z,5.60
2022-12-05T16:35:04.620Z,5.60
2022-12-05T16:36:37.578Z,5.60
2022-12-05T16:38:14.657Z,5.60
2022-12-05T16:39:47.706Z,5.60
2022-12-05T16:41:22.318Z,5.60
2022-12-05T16:43:02.854Z,5.60
2022-12-05T16:45:03.584Z,5.60
2022-12-05T16:46:45.441Z,5.60
2022-12-05T16:48:22.496Z,5.60
2022-12-05T16:49:55.418Z,5.60
2022-12-05T16:51:40.444Z,5.60
2022-12-05T16:53:23.768Z,5.60
2022-12-05T16:54:56.840Z,5.60
2022-12-05T16:56:31.659Z,5.60
2022-12-05T16:58:04.347Z,5.60
2022-12-05T16:59:38.899Z,5.60
2022-12-05T17:01:18.489Z,5.60
2022-12-05T17:02:55.257Z,5.50
2022-12-05T17:04:28.397Z,5.50
2022-12-05T17:06:01.589Z,5.50
2022-12-05T17:07:34.569Z,5.50
2022-12-05T17:09:07.490Z,5.50
2022-12-05T17:10:40.572Z,5.40
2022-12-05T17:12:19.243Z,5.50
2022-12-05T17:13:53.317Z,5.50
2022-12-05T17:15:26.117Z,5.50
2022-12-05T17:17:03.047Z,5.50
2022-12-05T17:18:35.883Z,5.40
2022-12-05T17:20:09.410Z,5.40
2022-12-05T17:21:43.575Z,5.40
2022-12-05T17:23:17.227Z,5.40
2022-12-05T17:24:50.192Z,5.40
2022-12-05T17:26:23.451Z,5.40
2022-12-05T17:27:56.309Z,5.40
2022-12-05T17:29:35.284Z,5.50
2022-12-05T17:31:12.663Z,5.40
2022-12-05T17:32:47.060Z,5.40
2022-12-05T17:34:19.895Z,5.30
2022-12-05T17:35:52.966Z,5.30
2022-12-05T17:37:25.835Z,5.30
2022-12-05T17:38:58.656Z,5.30
2022-12-05T17:40:31.922Z,5.30
2022-12-05T17:42:04.990Z,5.30
2022-12-05T17:43:38.067Z,5.30
2022-12-05T17:45:14.270Z,5.20
2022-12-05T17:46:47.150Z,5.30
2022-12-05T17:48:21.695Z,5.30
2022-12-05T17:49:54.538Z,5.20
2022-12-05T17:51:27.867Z,5.20
2022-12-05T17:53:05.885Z,5.20
2022-12-05T17:54:40.308Z,5.20
2022-12-05T17:56:13.417Z,5.10
2022-12-05T17:57:46.622Z,5.10
2022-12-05T17:59:19.492Z,5.10
2022-12-05T18:00:52.488Z,5.10
2022-12-05T18:02:25.421Z,5.10
2022-12-05T18:03:59.583Z,5.00
2022-12-05T18:05:32.428Z,5.00
2022-12-05T18:07:05.416Z,5.00
2022-12-05T18:08:39.703Z,4.90
2022-12-05T18:10:15.056Z,4.80
2022-12-05T18:11:47.974Z,4.80
2022-12-05T18:13:20.874Z,4.70
2022-12-05T18:14:53.804Z,4.70
2022-12-05T18:16:26.690Z,4.60
2022-12-05T18:18:03.105Z,4.60
2022-12-05T18:19:37.616Z,4.60
2022-12-05T18:21:11.796Z,4.50
2022-12-05T18:22:44.702Z,4.60
2022-12-05T18:24:17.583Z,4.60
2022-12-05T18:25:59.416Z,4.60
2022-12-05T18:27:32.508Z,4.60
2022-12-05T18:29:05.714Z,4.60
2022-12-05T18:30:38.748Z,4.60
2022-12-05T18:32:12.305Z,4.60
2022-12-05T18:33:46.450Z,4.60
2022-12-05T18:35:39.979Z,4.60
2022-12-05T18:37:13.169Z,4.60
2022-12-05T18:38:51.154Z,4.60
2022-12-05T18:40:25.438Z,4.60
2022-12-05T18:42:00.544Z,4.60
2022-12-05T18:43:34.026Z,4.60
2022-12-05T18:45:08.151Z,4.60
2022-12-05T18:46:41.456Z,4.60
2022-12-05T18:48:38.109Z,4.60
2022-12-05T18:50:09.768Z,4.60
2022-12-05T18:51:44.097Z,4.60
2022-12-05T18:53:17.141Z,4.70
2022-12-05T18:55:09.251Z,4.70
2022-12-05T18:56:45.726Z,4.70
2022-12-05T18:58:18.653Z,4.70
2022-12-05T18:59:51.949Z,4.70
2022-12-05T19:01:25.013Z,4.70
2022-12-05T19:02:58.104Z,4.70
2022-12-05T19:04:31.008Z,4.70
2022-12-05T19:06:12.508Z,4.80
2022-12-05T19:07:46.775Z,4.80
2022-12-05T19:09:21.410Z,4.80
2022-12-05T19:10:54.270Z,4.80
2022-12-05T19:12:27.247Z,4.80
2022-12-05T19:14:01.785Z,4.80
2022-12-05T19:15:34.730Z,4.90
2022-12-05T19:17:07.686Z,4.70
2022-12-05T19:18:40.578Z,4.90
2022-12-05T19:20:14.291Z,4.90
2022-12-05T19:21:47.590Z,4.90
2022-12-05T19:23:21.895Z,4.90
2022-12-05T19:24:55.051Z,4.90
2022-12-05T19:26:28.132Z,4.90
2022-12-05T19:28:00.979Z,4.90
2022-12-05T19:29:33.842Z,4.80
2022-12-05T19:31:08.866Z,4.90
2022-12-05T19:32:41.806Z,4.90
2022-12-05T19:34:14.673Z,4.90
2022-12-05T19:35:47.675Z,4.90
2022-12-05T19:37:20.638Z,4.90
2022-12-05T19:38:56.202Z,4.90
2022-12-05T19:40:29.060Z,4.90
2022-12-05T19:42:02.056Z,4.90
2022-12-05T19:43:36.627Z,4.90
2022-12-05T19:45:13.564Z,4.90
2022-12-05T19:46:51.150Z,4.90
2022-12-05T19:48:24.589Z,4.90
2022-12-05T19:49:57.625Z,4.90
2022-12-05T19:51:31.524Z,4.90
2022-12-05T19:53:04.434Z,4.80
2022-12-05T19:54:38.768Z,4.90
2022-12-05T19:56:14.644Z,5.00
2022-12-05T19:57:47.590Z,4.90
2022-12-05T19:59:21.244Z,4.90
2022-12-05T20:00:54.221Z,4.90
2022-12-05T20:02:30.462Z,4.90
2022-12-05T20:04:05.675Z,5.20
2022-12-05T20:05:38.973Z,4.90
2022-12-05T20:07:12.048Z,5.00
2022-12-05T20:08:45.328Z,4.90
2022-12-05T20:10:19.841Z,4.90
2022-12-05T20:11:55.601Z,4.70
2022-12-05T20:15:22.172Z,5.30
2022-12-05T20:16:55.621Z,5.40
2022-12-05T20:18:28.804Z,4.90
2022-12-05T20:20:01.915Z,5.10
2022-12-05T20:21:36.433Z,4.90
2022-12-05T20:23:09.419Z,4.90
2022-12-05T20:24:42.366Z,4.90
2022-12-05T20:26:19.169Z,4.90
2022-12-05T20:27:52.372Z,4.90
2022-12-05T20:29:25.708Z,4.90
2022-12-05T20:31:06.787Z,5.00
2022-12-05T20:32:39.763Z,4.90
2022-12-05T20:34:15.133Z,4.80
2022-12-05T20:35:48.162Z,4.80
2022-12-05T20:37:21.161Z,4.80
2022-12-05T20:38:57.186Z,4.70
2022-12-05T20:40:30.301Z,4.80
2022-12-05T20:42:04.898Z,4.70
2022-12-05T20:43:38.176Z,4.70
2022-12-05T20:45:11.667Z,4.70
2022-12-05T20:46:45.008Z,4.70
2022-12-05T20:48:17.798Z,4.70
2022-12-05T20:49:50.808Z,5.30
2022-12-05T20:51:27.301Z,4.70
2022-12-05T20:53:03.122Z,4.60
2022-12-05T20:54:36.251Z,4.70
2022-12-05T20:56:11.605Z,4.70
2022-12-05T20:57:45.837Z,4.70
2022-12-05T20:59:18.983Z,4.70
2022-12-05T21:00:59.293Z,4.60
2022-12-05T21:02:32.389Z,4.70
2022-12-05T21:04:06.462Z,4.70
2022-12-05T21:05:39.523Z,4.70
2022-12-05T21:07:12.454Z,4.60
2022-12-05T21:08:46.008Z,4.70
2022-12-05T21:10:19.096Z,4.60
2022-12-05T21:11:52.147Z,4.60
2022-12-05T21:13:26.578Z,4.60
2022-12-05T21:14:59.441Z,4.60
2022-12-05T21:16:32.425Z,4.60
2022-12-05T21:18:05.504Z,4.50
2022-12-05T21:19:39.365Z,4.50
2022-12-05T21:21:14.603Z,4.40
2022-12-05T21:22:47.464Z,4.40
2022-12-05T21:24:20.350Z,4.40
2022-12-05T21:25:53.458Z,4.40
2022-12-05T21:27:26.361Z,4.40
2022-12-05T21:29:01.860Z,4.20
2022-12-05T21:30:36.622Z,4.20
2022-12-05T21:32:09.773Z,4.20
2022-12-05T21:33:43.970Z,4.10
2022-12-05T21:35:16.940Z,4.20
2022-12-05T21:36:50.278Z,4.20
2022-12-05T21:38:23.003Z,4.20